createdAt,value
2018-02-09T00:00:06.348Z,75.91
2018-02-09T00:00:51.070Z,75.53
2018-02-09T00:01:35.772Z,75.81
2018-02-09T00:02:20.475Z,76.48
2018-02-09T00:03:05.250Z,76.57
2018-02-09T00:03:49.957Z,76.34
2018-02-09T00:04:34.672Z,76.34
2018-02-09T00:05:19.422Z,76.82
2018-02-09T00:06:04.174Z,76.82
2018-02-09T00:06:48.874Z,77.20
2018-02-09T00:07:33.574Z,77.20
2018-02-09T00:08:18.275Z,77.29
2018-02-09T00:09:03.032Z,77.48
2018-02-09T00:09:47.755Z,77.48
2018-02-09T00:10:32.457Z,77.58
2018-02-09T00:11:17.204Z,77.20
2018-02-09T00:12:01.904Z,77.48
2018-02-09T00:12:46.607Z,77.29
2018-02-09T00:13:31.356Z,77.29
2018-02-09T00:14:16.106Z,77.29
2018-02-09T00:15:00.882Z,77.20
2018-02-09T00:15:45.582Z,77.20
2018-02-09T00:16:30.353Z,77.29
2018-02-09T00:17:15.072Z,77.67
2018-02-09T00:17:59.773Z,77.58
2018-02-09T00:18:44.482Z,77.67
2018-02-09T00:19:29.246Z,77.76
2018-02-09T00:20:13.950Z,77.76
2018-02-09T00:20:58.653Z,77.58
2018-02-09T00:21:43.379Z,78.14
2018-02-09T00:22:28.102Z,77.95
2018-02-09T00:23:12.798Z,77.95
2018-02-09T00:23:57.500Z,77.76
2018-02-09T00:24:42.204Z,78.42
2018-02-09T00:25:26.928Z,77.95
2018-02-09T00:26:11.628Z,78.61
2018-02-09T00:26:56.327Z,78.23
2018-02-09T00:27:41.075Z,78.42
2018-02-09T00:28:25.778Z,79.09
2018-02-09T00:29:10.505Z,78.71
2018-02-09T00:29:55.200Z,78.71
2018-02-09T00:30:39.904Z,78.71
2018-02-09T00:31:24.603Z,79.56
2018-02-09T00:32:09.357Z,80.13
2018-02-09T00:32:54.126Z,80.32
2018-02-09T00:33:38.830Z,80.88
2018-02-09T00:34:23.527Z,80.88
2018-02-09T00:35:08.233Z,81.55
2018-02-09T00:35:52.959Z,82.02
2018-02-09T00:36:37.654Z,82.02
2018-02-09T00:37:22.409Z,82.59
2018-02-09T00:38:07.111Z,82.21
2018-02-09T00:38:51.807Z,82.50
2018-02-09T00:39:36.509Z,82.78
2018-02-09T00:40:21.260Z,82.59
2018-02-09T00:41:05.961Z,82.78
2018-02-09T00:41:50.666Z,82.31
2018-02-09T00:42:35.359Z,82.02
2018-02-09T00:43:20.060Z,81.74
2018-02-09T00:44:04.757Z,82.02
2018-02-09T00:44:49.459Z,81.83
2018-02-09T00:45:34.164Z,81.83
2018-02-09T00:46:18.858Z,82.21
2018-02-09T00:47:03.560Z,82.02
2018-02-09T00:47:48.313Z,82.40
2018-02-09T00:48:33.011Z,82.40
2018-02-09T00:49:17.707Z,82.59
2018-02-09T00:50:02.413Z,83.25
2018-02-09T00:50:47.113Z,83.25
2018-02-09T00:51:31.836Z,83.44
2018-02-09T00:52:16.539Z,82.68
2018-02-09T00:53:01.241Z,83.34
2018-02-09T00:53:45.961Z,83.06
2018-02-09T00:54:30.664Z,83.06
2018-02-09T00:55:15.366Z,83.34
2018-02-09T00:56:00.091Z,82.87
2018-02-09T00:56:44.797Z,83.15
2018-02-09T00:57:29.519Z,82.68
2018-02-09T00:58:14.211Z,82.68
2018-02-09T00:58:59.014Z,82.50
2018-02-09T00:59:43.662Z,82.31
2018-02-09T01:00:28.401Z,82.31
2018-02-09T01:01:13.185Z,81.74
2018-02-09T01:01:57.865Z,81.64
2018-02-09T01:02:42.566Z,81.45
2018-02-09T01:03:27.317Z,81.74
2018-02-09T01:04:12.022Z,81.36
2018-02-09T01:04:56.717Z,81.07
2018-02-09T01:05:41.401Z,81.07
2018-02-09T01:06:26.105Z,80.69
2018-02-09T01:07:10.826Z,81.03
2018-02-09T01:07:55.527Z,80.65
2018-02-09T01:08:40.280Z,80.84
2018-02-09T01:09:25.028Z,80.84
2018-02-09T01:10:09.751Z,81.03
2018-02-09T01:10:54.453Z,80.75
2018-02-09T01:11:39.201Z,80.46
2018-02-09T01:12:23.898Z,80.08
2018-02-09T01:13:08.603Z,79.99
2018-02-09T01:13:53.349Z,80.18
2018-02-09T01:14:38.053Z,79.71
2018-02-09T01:15:22.777Z,79.43
2018-02-09T01:16:07.481Z,80.27
2018-02-09T01:16:52.254Z,79.80
2018-02-09T01:17:36.976Z,80.08
2018-02-09T01:18:21.680Z,80.65
2018-02-09T01:19:06.381Z,80.56
2018-02-09T01:19:51.136Z,81.03
2018-02-09T01:20:35.859Z,80.75
2018-02-09T01:21:20.556Z,80.88
2018-02-09T01:22:05.255Z,80.27
2018-02-09T01:22:49.957Z,80.08
2018-02-09T01:23:34.661Z,79.90
2018-02-09T01:24:19.409Z,79.99
2018-02-09T01:25:04.160Z,79.52
2018-02-09T01:25:48.886Z,79.47
2018-02-09T01:26:33.583Z,79.24
2018-02-09T01:27:18.335Z,78.86
2018-02-09T01:28:03.056Z,79.43
2018-02-09T01:28:47.761Z,79.24
2018-02-09T01:29:32.487Z,79.28
2018-02-09T01:30:17.256Z,79.24
2018-02-09T01:31:01.955Z,79.52
2018-02-09T01:31:46.661Z,79.37
2018-02-09T01:32:31.408Z,78.90
2018-02-09T01:33:16.111Z,79.37
2018-02-09T01:34:00.810Z,79.09
2018-02-09T01:34:45.512Z,78.61
2018-02-09T01:35:30.265Z,78.90
2018-02-09T01:36:14.981Z,78.71
2018-02-09T01:36:59.694Z,78.80
2018-02-09T01:37:44.385Z,78.52
2018-02-09T01:38:29.090Z,78.52
2018-02-09T01:39:13.812Z,78.14
2018-02-09T01:39:58.516Z,78.33
2018-02-09T01:40:43.288Z,78.52
2018-02-09T01:41:27.990Z,78.14
2018-02-09T01:42:12.716Z,78.14
2018-02-09T01:42:57.413Z,77.95
2018-02-09T01:43:42.115Z,78.05
2018-02-09T01:44:26.820Z,77.58
2018-02-09T01:45:11.549Z,77.86
2018-02-09T01:45:56.262Z,77.76
2018-02-09T01:46:41.011Z,77.67
2018-02-09T01:47:25.716Z,77.67
2018-02-09T01:48:10.441Z,77.48
2018-02-09T01:48:55.190Z,77.20
2018-02-09T01:49:39.887Z,77.48
2018-02-09T01:50:24.586Z,77.20
2018-02-09T01:51:09.285Z,77.58
2018-02-09T01:51:53.987Z,77.20
2018-02-09T01:52:38.690Z,77.01
2018-02-09T01:53:23.388Z,77.10
2018-02-09T01:54:08.092Z,77.01
2018-02-09T01:54:52.791Z,76.82
2018-02-09T01:55:37.490Z,76.91
2018-02-09T01:56:22.245Z,76.91
2018-02-09T01:57:06.970Z,76.72
2018-02-09T01:57:51.667Z,76.72
2018-02-09T01:58:36.417Z,76.53
2018-02-09T01:59:21.139Z,76.82
2018-02-09T02:00:05.841Z,76.34
2018-02-09T02:00:50.567Z,76.15
2018-02-09T02:01:35.337Z,76.15
2018-02-09T02:02:20.039Z,76.44
2018-02-09T02:03:04.740Z,76.06
2018-02-09T02:03:49.445Z,76.25
2018-02-09T02:04:34.165Z,76.34
2018-02-09T02:05:18.968Z,76.44
2018-02-09T02:06:03.665Z,76.34
2018-02-09T02:06:48.402Z,76.63
2018-02-09T02:07:33.342Z,76.63
2018-02-09T02:08:18.094Z,76.63
2018-02-09T02:09:02.798Z,76.63
2018-02-09T02:09:47.499Z,76.34
2018-02-09T02:10:32.230Z,76.72
2018-02-09T02:11:16.950Z,76.25
2018-02-09T02:12:01.673Z,76.06
2018-02-09T02:12:46.392Z,76.25
2018-02-09T02:13:31.102Z,76.53
2018-02-09T02:14:15.796Z,76.34
2018-02-09T02:15:00.500Z,76.44
2018-02-09T02:15:45.197Z,76.34
2018-02-09T02:16:29.948Z,75.87
2018-02-09T02:17:14.649Z,75.96
2018-02-09T02:17:59.348Z,76.44
2018-02-09T02:18:44.100Z,75.96
2018-02-09T02:19:28.799Z,76.34
2018-02-09T02:20:13.499Z,76.53
2018-02-09T02:20:58.250Z,76.06
2018-02-09T02:21:42.954Z,75.87
2018-02-09T02:22:27.683Z,75.87
2018-02-09T02:23:12.403Z,75.78
2018-02-09T02:23:57.106Z,75.59
2018-02-09T02:24:41.830Z,75.87
2018-02-09T02:25:26.531Z,75.87
2018-02-09T02:26:11.279Z,75.68
2018-02-09T02:26:55.976Z,75.87
2018-02-09T02:27:40.681Z,75.78
2018-02-09T02:28:25.431Z,75.59
2018-02-09T02:29:10.178Z,75.78
2018-02-09T02:29:54.879Z,75.78
2018-02-09T02:30:39.583Z,75.68
2018-02-09T02:31:24.329Z,75.59
2018-02-09T02:32:09.030Z,75.78
2018-02-09T02:32:53.735Z,75.59
2018-02-09T02:33:38.457Z,75.87
2018-02-09T02:34:23.159Z,75.87
2018-02-09T02:35:07.916Z,75.96
2018-02-09T02:35:52.610Z,75.78
2018-02-09T02:36:37.383Z,75.68
2018-02-09T02:37:22.131Z,75.59
2018-02-09T02:38:06.832Z,75.68
2018-02-09T02:38:51.556Z,75.87
2018-02-09T02:39:36.257Z,75.78
2018-02-09T02:40:21.008Z,76.25
2018-02-09T02:41:05.737Z,75.87
2018-02-09T02:41:50.432Z,76.44
2018-02-09T02:42:35.132Z,76.44
2018-02-09T02:43:19.834Z,75.87
2018-02-09T02:44:04.536Z,76.44
2018-02-09T02:44:49.235Z,76.06
2018-02-09T02:45:33.981Z,76.63
2018-02-09T02:46:18.683Z,77.01
2018-02-09T02:47:03.439Z,77.10
2018-02-09T02:47:49.357Z,77.01
2018-02-09T02:48:34.085Z,77.01
2018-02-09T02:49:18.780Z,77.29
2018-02-09T02:50:03.484Z,77.10
2018-02-09T02:50:48.254Z,77.48
2018-02-09T02:51:32.953Z,77.29
2018-02-09T02:52:17.652Z,77.29
2018-02-09T02:53:02.402Z,77.58
2018-02-09T02:53:47.106Z,77.39
2018-02-09T02:54:31.824Z,77.20
2018-02-09T02:55:16.548Z,77.86
2018-02-09T02:56:01.290Z,77.48
2018-02-09T02:56:46.046Z,77.86
2018-02-09T02:57:30.741Z,77.86
2018-02-09T02:58:15.466Z,77.76
2018-02-09T02:59:00.185Z,77.76
2018-02-09T02:59:44.935Z,77.95
2018-02-09T03:00:29.632Z,77.58
2018-02-09T03:01:14.334Z,77.10
2018-02-09T03:01:59.079Z,77.48
2018-02-09T03:02:43.877Z,77.29
2018-02-09T03:03:28.574Z,77.48
2018-02-09T03:04:13.325Z,77.48
2018-02-09T03:04:58.044Z,77.48
2018-02-09T03:05:42.750Z,77.10
2018-02-09T03:06:27.456Z,77.29
2018-02-09T03:07:12.227Z,77.01
2018-02-09T03:07:56.945Z,77.01
2018-02-09T03:08:41.647Z,77.29
2018-02-09T03:09:26.423Z,77.01
2018-02-09T03:10:11.141Z,77.20
2018-02-09T03:10:55.839Z,76.91
2018-02-09T03:11:40.560Z,76.91
2018-02-09T03:12:25.310Z,76.72
2018-02-09T03:13:10.012Z,77.01
2018-02-09T03:13:54.734Z,76.72
2018-02-09T03:14:39.431Z,76.72
2018-02-09T03:15:24.135Z,76.72
2018-02-09T03:16:08.852Z,76.82
2018-02-09T03:16:53.556Z,76.82
2018-02-09T03:17:38.308Z,76.82
2018-02-09T03:18:23.024Z,76.72
2018-02-09T03:19:07.733Z,76.53
2018-02-09T03:19:52.427Z,76.53
2018-02-09T03:20:37.132Z,76.63
2018-02-09T03:21:21.854Z,76.44
2018-02-09T03:22:06.554Z,76.67
2018-02-09T03:22:51.326Z,76.15
2018-02-09T03:23:36.098Z,76.63
2018-02-09T03:24:20.793Z,76.34
2018-02-09T03:25:05.495Z,76.44
2018-02-09T03:25:50.263Z,76.63
2018-02-09T03:26:35.015Z,76.76
2018-02-09T03:27:19.712Z,76.53
2018-02-09T03:28:04.439Z,76.76
2018-02-09T03:28:49.161Z,76.86
2018-02-09T03:29:33.860Z,76.76
2018-02-09T03:30:18.585Z,76.72
2018-02-09T03:31:03.279Z,77.04
2018-02-09T03:31:48.024Z,76.82
2018-02-09T03:32:32.728Z,77.20
2018-02-09T03:33:17.449Z,77.14
2018-02-09T03:34:02.150Z,77.04
2018-02-09T03:34:46.894Z,77.14
2018-02-09T03:35:31.598Z,76.38
2018-02-09T03:36:16.347Z,76.67
2018-02-09T03:37:01.043Z,76.76
2018-02-09T03:37:45.746Z,76.76
2018-02-09T03:38:30.473Z,76.57
2018-02-09T03:39:15.195Z,76.34
2018-02-09T03:39:59.894Z,75.68
2018-02-09T03:40:44.591Z,75.49
2018-02-09T03:41:29.343Z,74.55
2018-02-09T03:42:14.090Z,74.64
2018-02-09T03:42:58.857Z,74.74
2018-02-09T03:43:43.565Z,74.93
2018-02-09T03:44:28.281Z,75.02
2018-02-09T03:45:13.002Z,75.21
2018-02-09T03:45:57.705Z,75.59
2018-02-09T03:46:42.404Z,75.49
2018-02-09T03:47:27.128Z,75.31
2018-02-09T03:48:11.828Z,75.21
2018-02-09T03:48:56.529Z,75.12
2018-02-09T03:49:41.281Z,75.02
2018-02-09T03:50:25.996Z,75.02
2018-02-09T03:51:10.700Z,75.31
2018-02-09T03:51:55.398Z,74.83
2018-02-09T03:52:40.101Z,75.49
2018-02-09T03:53:24.822Z,75.49
2018-02-09T03:54:09.549Z,75.49
2018-02-09T03:54:54.263Z,74.93
2018-02-09T03:55:38.969Z,75.21
2018-02-09T03:56:23.686Z,74.83
2018-02-09T03:57:08.394Z,74.55
2018-02-09T03:57:53.138Z,74.83
2018-02-09T03:58:37.911Z,74.64
2018-02-09T03:59:22.606Z,75.05
2018-02-09T04:00:07.355Z,74.68
2018-02-09T04:00:52.061Z,74.77
2018-02-09T04:01:36.827Z,74.21
2018-02-09T04:02:21.524Z,74.40
2018-02-09T04:03:06.275Z,74.49
2018-02-09T04:03:50.977Z,74.40
2018-02-09T04:04:35.698Z,74.30
2018-02-09T04:05:20.397Z,74.21
2018-02-09T04:06:05.098Z,74.49
2018-02-09T04:06:49.798Z,74.21
2018-02-09T04:07:34.516Z,73.73
2018-02-09T04:08:19.221Z,73.92
2018-02-09T04:09:03.921Z,74.02
2018-02-09T04:09:48.621Z,74.11
2018-02-09T04:10:33.395Z,73.83
2018-02-09T04:11:18.112Z,73.83
2018-02-09T04:12:02.857Z,73.73
2018-02-09T04:12:47.562Z,73.73
2018-02-09T04:13:32.285Z,73.92
2018-02-09T04:14:16.988Z,73.73
2018-02-09T04:15:01.689Z,73.64
2018-02-09T04:15:46.410Z,73.73
2018-02-09T04:16:31.158Z,73.45
2018-02-09T04:17:15.854Z,73.54
2018-02-09T04:18:00.560Z,73.45
2018-02-09T04:18:45.306Z,73.73
2018-02-09T04:19:30.004Z,74.11
2018-02-09T04:20:14.703Z,73.83
2018-02-09T04:20:59.407Z,73.54
2018-02-09T04:21:44.100Z,73.45
2018-02-09T04:22:28.805Z,73.07
2018-02-09T04:23:13.524Z,73.16
2018-02-09T04:23:58.276Z,73.07
2018-02-09T04:24:43.024Z,73.07
2018-02-09T04:25:27.724Z,72.88
2018-02-09T04:26:12.446Z,72.88
2018-02-09T04:26:57.198Z,73.07
2018-02-09T04:27:41.909Z,73.16
2018-02-09T04:28:26.614Z,73.16
2018-02-09T04:29:11.336Z,73.16
2018-02-09T04:29:56.083Z,72.60
2018-02-09T04:30:40.837Z,73.07
2018-02-09T04:31:25.562Z,73.07
2018-02-09T04:32:10.286Z,72.41
2018-02-09T04:32:54.979Z,72.41
2018-02-09T04:33:39.684Z,72.31
2018-02-09T04:34:24.400Z,72.78
2018-02-09T04:35:09.158Z,72.97
2018-02-09T04:35:53.872Z,72.60
2018-02-09T04:36:38.577Z,72.78
2018-02-09T04:37:23.295Z,72.69
2018-02-09T04:38:08.005Z,72.78
2018-02-09T04:38:52.697Z,72.88
2018-02-09T04:39:37.403Z,72.88
2018-02-09T04:40:22.172Z,73.07
2018-02-09T04:41:06.872Z,73.16
2018-02-09T04:41:51.567Z,72.97
2018-02-09T04:42:36.271Z,72.88
2018-02-09T04:43:21.045Z,73.16
2018-02-09T04:44:05.790Z,73.16
2018-02-09T04:44:50.490Z,73.16
2018-02-09T04:45:35.266Z,73.26
2018-02-09T04:46:20.010Z,73.16
2018-02-09T04:47:04.709Z,73.16
2018-02-09T04:47:49.431Z,72.97
2018-02-09T04:48:34.154Z,72.97
2018-02-09T04:49:18.875Z,73.54
2018-02-09T04:50:03.583Z,73.54
2018-02-09T04:50:48.328Z,73.54
2018-02-09T04:51:33.047Z,73.07
2018-02-09T04:52:17.744Z,73.64
2018-02-09T04:53:02.449Z,73.35
2018-02-09T04:53:47.172Z,73.54
2018-02-09T04:54:31.886Z,73.35
2018-02-09T04:55:16.586Z,73.64
2018-02-09T04:56:01.338Z,73.92
2018-02-09T04:56:46.086Z,74.11
2018-02-09T04:57:30.802Z,73.92
2018-02-09T04:58:15.510Z,74.02
2018-02-09T04:59:00.253Z,74.40
2018-02-09T04:59:45.003Z,74.30
2018-02-09T05:00:29.754Z,74.21
2018-02-09T05:01:14.452Z,74.68
2018-02-09T05:01:59.250Z,74.77
2018-02-09T05:02:44.024Z,74.21
2018-02-09T05:03:28.744Z,74.30
2018-02-09T05:04:13.442Z,74.58
2018-02-09T05:04:58.164Z,74.30
2018-02-09T05:05:42.864Z,74.40
2018-02-09T05:06:27.564Z,74.49
2018-02-09T05:07:12.310Z,74.58
2018-02-09T05:07:57.013Z,74.21
2018-02-09T05:08:41.712Z,74.30
2018-02-09T05:09:26.415Z,74.40
2018-02-09T05:10:11.135Z,74.40
2018-02-09T05:10:55.834Z,74.30
2018-02-09T05:11:40.536Z,74.77
2018-02-09T05:12:25.263Z,74.77
2018-02-09T05:13:10.005Z,74.96
2018-02-09T05:13:54.708Z,74.87
2018-02-09T05:14:39.409Z,74.77
2018-02-09T05:15:24.126Z,74.77
2018-02-09T05:16:08.828Z,74.77
2018-02-09T05:16:53.531Z,74.87
2018-02-09T05:17:38.229Z,74.77
2018-02-09T05:18:22.996Z,74.96
2018-02-09T05:19:07.703Z,74.68
2018-02-09T05:19:52.412Z,75.15
2018-02-09T05:20:37.138Z,74.68
2018-02-09T05:21:21.838Z,74.87
2018-02-09T05:22:06.557Z,74.68
2018-02-09T05:22:51.325Z,74.87
2018-02-09T05:23:36.025Z,74.87
2018-02-09T05:24:20.725Z,74.87
2018-02-09T05:25:05.446Z,74.68
2018-02-09T05:25:50.149Z,75.05
2018-02-09T05:26:34.847Z,74.96
2018-02-09T05:27:19.545Z,74.87
2018-02-09T05:28:04.247Z,75.05
2018-02-09T05:28:48.950Z,74.68
2018-02-09T05:29:33.664Z,74.87
2018-02-09T05:30:18.375Z,74.87
2018-02-09T05:31:03.123Z,74.77
2018-02-09T05:31:47.819Z,74.96
2018-02-09T05:32:32.517Z,74.96
2018-02-09T05:33:17.219Z,74.87
2018-02-09T05:34:01.918Z,74.77
2018-02-09T05:34:46.623Z,74.68
2018-02-09T05:35:31.393Z,74.58
2018-02-09T05:36:16.109Z,75.05
2018-02-09T05:37:00.813Z,75.05
2018-02-09T05:37:45.535Z,75.05
2018-02-09T05:38:30.290Z,74.87
2018-02-09T05:39:15.055Z,74.96
2018-02-09T05:39:59.799Z,75.15
2018-02-09T05:40:44.502Z,74.77
2018-02-09T05:41:29.202Z,74.77
2018-02-09T05:42:13.971Z,75.15
2018-02-09T05:42:58.668Z,74.68
2018-02-09T05:43:43.423Z,75.05
2018-02-09T05:44:28.125Z,75.24
2018-02-09T05:45:12.894Z,74.96
2018-02-09T05:45:57.591Z,74.96
2018-02-09T05:46:42.288Z,74.87
2018-02-09T05:47:26.995Z,74.68
2018-02-09T05:48:11.718Z,74.40
2018-02-09T05:48:56.439Z,74.87
2018-02-09T05:49:41.160Z,74.96
2018-02-09T05:50:25.878Z,74.77
2018-02-09T05:51:10.596Z,74.77
2018-02-09T05:51:55.357Z,74.68
2018-02-09T05:52:40.122Z,74.87
2018-02-09T05:53:24.818Z,74.77
2018-02-09T05:54:09.522Z,74.77
2018-02-09T05:54:54.298Z,74.77
2018-02-09T05:55:39.016Z,74.49
2018-02-09T05:56:23.735Z,74.77
2018-02-09T05:57:08.438Z,74.87
2018-02-09T05:57:53.359Z,75.15
2018-02-09T05:58:38.062Z,74.96
2018-02-09T05:59:22.757Z,75.05
2018-02-09T06:00:07.461Z,74.96
2018-02-09T06:00:52.231Z,75.15
2018-02-09T06:01:36.985Z,75.05
2018-02-09T06:02:21.902Z,75.05
2018-02-09T06:03:06.604Z,75.05
2018-02-09T06:03:51.329Z,74.96
2018-02-09T06:04:36.028Z,74.77
2018-02-09T06:05:20.781Z,74.77
2018-02-09T06:06:05.548Z,74.49
2018-02-09T06:06:50.252Z,74.87
2018-02-09T06:07:34.952Z,74.68
2018-02-09T06:08:19.693Z,74.77
2018-02-09T06:09:04.377Z,74.58
2018-02-09T06:09:49.176Z,74.77
2018-02-09T06:10:33.883Z,74.77
2018-02-09T06:11:18.606Z,74.77
2018-02-09T06:12:03.303Z,74.96
2018-02-09T06:12:48.056Z,74.87
2018-02-09T06:13:32.832Z,74.96
2018-02-09T06:14:17.554Z,75.05
2018-02-09T06:15:02.277Z,74.68
2018-02-09T06:15:46.995Z,75.53
2018-02-09T06:16:31.704Z,74.77
2018-02-09T06:17:16.423Z,74.68
2018-02-09T06:18:01.151Z,74.77
2018-02-09T06:18:45.870Z,74.77
2018-02-09T06:19:30.793Z,74.58
2018-02-09T06:20:15.501Z,75.53
2018-02-09T06:21:00.223Z,75.24
2018-02-09T06:21:44.919Z,75.24
2018-02-09T06:22:29.620Z,75.15
2018-02-09T06:23:14.348Z,74.96
2018-02-09T06:23:59.050Z,75.34
2018-02-09T06:24:43.748Z,75.72
2018-02-09T06:25:28.453Z,74.87
2018-02-09T06:26:13.178Z,75.15
2018-02-09T06:26:57.882Z,75.24
2018-02-09T06:27:42.581Z,75.24
2018-02-09T06:28:27.335Z,74.96
2018-02-09T06:29:12.054Z,74.96
2018-02-09T06:29:56.754Z,74.58
2018-02-09T06:30:41.458Z,74.68
2018-02-09T06:31:26.160Z,74.68
2018-02-09T06:32:10.867Z,74.58
2018-02-09T06:32:55.592Z,74.77
2018-02-09T06:33:40.296Z,74.77
2018-02-09T06:34:25.002Z,74.77
2018-02-09T06:35:09.733Z,74.77
2018-02-09T06:35:54.425Z,74.77
2018-02-09T06:36:39.120Z,74.68
2018-02-09T06:37:23.848Z,74.71
2018-02-09T06:38:08.568Z,75.15
2018-02-09T06:38:53.274Z,74.77
2018-02-09T06:39:38.047Z,74.68
2018-02-09T06:40:22.754Z,74.77
2018-02-09T06:41:07.477Z,74.40
2018-02-09T06:41:52.180Z,74.40
2018-02-09T06:42:36.894Z,74.52
2018-02-09T06:43:21.598Z,74.43
2018-02-09T06:44:06.300Z,74.02
2018-02-09T06:44:51.007Z,74.05
2018-02-09T06:45:35.728Z,74.15
2018-02-09T06:46:20.430Z,74.05
2018-02-09T06:47:05.143Z,74.21
2018-02-09T06:47:49.845Z,73.30
2018-02-09T06:48:34.549Z,73.58
2018-02-09T06:49:19.253Z,74.24
2018-02-09T06:50:04.026Z,73.83
2018-02-09T06:50:48.725Z,73.26
2018-02-09T06:51:33.435Z,73.54
2018-02-09T06:52:18.158Z,73.54
2018-02-09T06:53:02.865Z,73.68
2018-02-09T06:53:47.585Z,73.39
2018-02-09T06:54:32.288Z,73.39
2018-02-09T06:55:16.994Z,73.20
2018-02-09T06:56:01.723Z,72.92
2018-02-09T06:56:46.427Z,73.01
2018-02-09T06:57:31.173Z,73.20
2018-02-09T06:58:15.878Z,73.01
2018-02-09T06:59:00.580Z,73.01
2018-02-09T06:59:45.305Z,72.82
2018-02-09T07:00:30.011Z,73.01
2018-02-09T07:01:14.716Z,73.01
2018-02-09T07:01:59.443Z,73.20
2018-02-09T07:02:44.196Z,73.11
2018-02-09T07:03:28.919Z,72.82
2018-02-09T07:04:13.623Z,72.73
2018-02-09T07:04:58.329Z,72.82
2018-02-09T07:05:43.084Z,72.73
2018-02-09T07:06:27.809Z,72.92
2018-02-09T07:07:12.962Z,72.63
2018-02-09T07:07:57.628Z,72.73
2018-02-09T07:08:42.359Z,72.53
2018-02-09T07:09:27.059Z,73.01
2018-02-09T07:10:11.757Z,73.11
2018-02-09T07:10:56.464Z,72.82
2018-02-09T07:11:41.167Z,72.44
2018-02-09T07:12:25.869Z,72.53
2018-02-09T07:13:10.570Z,72.73
2018-02-09T07:13:55.322Z,72.25
2018-02-09T07:14:40.073Z,72.34
2018-02-09T07:15:24.819Z,72.16
2018-02-09T07:16:09.521Z,72.06
2018-02-09T07:16:54.276Z,71.97
2018-02-09T07:17:39.045Z,71.87
2018-02-09T07:18:23.730Z,71.78
2018-02-09T07:19:08.435Z,71.69
2018-02-09T07:19:53.139Z,71.87
2018-02-09T07:20:37.865Z,71.97
2018-02-09T07:21:22.572Z,72.16
2018-02-09T07:22:07.268Z,72.16
2018-02-09T07:22:51.972Z,72.06
2018-02-09T07:23:36.674Z,72.06
2018-02-09T07:24:21.429Z,72.06
2018-02-09T07:25:06.129Z,72.16
2018-02-09T07:25:50.837Z,72.16
2018-02-09T07:26:35.561Z,71.87
2018-02-09T07:27:20.312Z,71.69
2018-02-09T07:28:05.020Z,71.78
2018-02-09T07:28:49.736Z,71.87
2018-02-09T07:29:34.448Z,71.97
2018-02-09T07:30:19.150Z,72.06
2018-02-09T07:31:03.882Z,71.97
2018-02-09T07:31:48.804Z,71.87
2018-02-09T07:32:33.509Z,71.78
2018-02-09T07:33:18.290Z,71.78
2018-02-09T07:34:03.020Z,71.87
2018-02-09T07:34:47.735Z,71.69
2018-02-09T07:35:32.444Z,72.16
2018-02-09T07:36:17.145Z,72.06
2018-02-09T07:37:01.851Z,71.31
2018-02-09T07:37:46.578Z,71.69
2018-02-09T07:38:31.335Z,71.69
2018-02-09T07:39:16.033Z,71.78
2018-02-09T07:40:00.757Z,71.59
2018-02-09T07:40:45.465Z,71.59
2018-02-09T07:41:30.223Z,71.59
2018-02-09T07:42:14.917Z,71.21
2018-02-09T07:42:59.644Z,71.40
2018-02-09T07:43:44.400Z,71.50
2018-02-09T07:44:29.122Z,71.21
2018-02-09T07:45:13.830Z,71.31
2018-02-09T07:45:58.555Z,71.50
2018-02-09T07:46:43.326Z,71.02
2018-02-09T07:47:28.025Z,71.21
2018-02-09T07:48:12.786Z,71.02
2018-02-09T07:48:57.508Z,71.12
2018-02-09T07:49:42.264Z,71.21
2018-02-09T07:50:26.987Z,70.93
2018-02-09T07:51:11.691Z,71.02
2018-02-09T07:51:56.398Z,71.02
2018-02-09T07:52:41.122Z,71.12
2018-02-09T07:53:25.881Z,71.12
2018-02-09T07:54:10.602Z,70.93
2018-02-09T07:54:55.353Z,71.21
2018-02-09T07:55:40.058Z,71.50
2018-02-09T07:56:24.764Z,71.44
2018-02-09T07:57:09.470Z,71.31
2018-02-09T07:57:54.203Z,71.44
2018-02-09T07:58:38.911Z,71.44
2018-02-09T07:59:23.609Z,71.53
2018-02-09T08:00:08.366Z,71.72
2018-02-09T08:00:53.095Z,71.44
2018-02-09T08:01:37.821Z,71.44
2018-02-09T08:02:22.506Z,71.25
2018-02-09T08:03:07.238Z,71.25
2018-02-09T08:03:51.943Z,70.78
2018-02-09T08:04:36.649Z,70.97
2018-02-09T08:05:21.353Z,71.25
2018-02-09T08:06:06.059Z,70.87
2018-02-09T08:06:50.762Z,70.49
2018-02-09T08:07:35.464Z,70.78
2018-02-09T08:08:20.194Z,71.25
2018-02-09T08:09:04.893Z,71.25
2018-02-09T08:09:49.602Z,70.87
2018-02-09T08:10:34.329Z,70.68
2018-02-09T08:11:19.032Z,70.68
2018-02-09T08:12:03.734Z,70.97
2018-02-09T08:12:48.461Z,70.68
2018-02-09T08:13:33.170Z,70.39
2018-02-09T08:14:17.868Z,69.82
2018-02-09T08:15:02.571Z,70.11
2018-02-09T08:15:47.326Z,70.30
2018-02-09T08:16:32.050Z,69.54
2018-02-09T08:17:16.809Z,69.82
2018-02-09T08:18:01.477Z,69.45
2018-02-09T08:18:46.207Z,69.92
2018-02-09T08:19:30.936Z,69.64
2018-02-09T08:20:15.854Z,69.82
2018-02-09T08:21:00.561Z,70.01
2018-02-09T08:21:45.270Z,70.01
2018-02-09T08:22:29.977Z,70.30
2018-02-09T08:23:14.704Z,69.64
2018-02-09T08:23:59.410Z,69.54
2018-02-09T08:24:44.133Z,69.82
2018-02-09T08:25:28.862Z,69.73
2018-02-09T08:26:13.568Z,69.64
2018-02-09T08:26:58.274Z,69.38
2018-02-09T08:27:43.000Z,69.29
2018-02-09T08:28:27.704Z,69.38
2018-02-09T08:29:12.414Z,69.35
2018-02-09T08:29:57.120Z,69.10
2018-02-09T08:30:41.820Z,69.38
2018-02-09T08:31:26.527Z,69.20
2018-02-09T08:32:11.257Z,68.91
2018-02-09T08:32:55.980Z,68.73
2018-02-09T08:33:40.686Z,68.91
2018-02-09T08:34:25.394Z,68.82
2018-02-09T08:35:10.122Z,68.82
2018-02-09T08:35:54.874Z,68.82
2018-02-09T08:36:39.579Z,69.01
2018-02-09T08:37:24.331Z,68.54
2018-02-09T08:38:09.042Z,68.82
2018-02-09T08:38:53.769Z,68.79
2018-02-09T08:39:38.475Z,69.26
2018-02-09T08:40:23.172Z,69.54
2018-02-09T08:41:07.879Z,69.35
2018-02-09T08:41:52.585Z,69.45
2018-02-09T08:42:37.287Z,69.35
2018-02-09T08:43:21.998Z,69.54
2018-02-09T08:44:06.700Z,69.29
2018-02-09T08:44:51.431Z,69.26
2018-02-09T08:45:36.134Z,69.57
2018-02-09T08:46:20.841Z,69.29
2018-02-09T08:47:05.570Z,69.38
2018-02-09T08:47:50.274Z,69.29
2018-02-09T08:48:35.008Z,69.29
2018-02-09T08:49:19.724Z,69.20
2018-02-09T08:50:04.438Z,69.57
2018-02-09T08:50:49.138Z,68.91
2018-02-09T08:51:33.845Z,68.91
2018-02-09T08:52:18.550Z,69.10
2018-02-09T08:53:03.255Z,69.29
2018-02-09T08:53:48.037Z,68.91
2018-02-09T08:54:32.732Z,69.20
2018-02-09T08:55:17.443Z,68.54
2018-02-09T08:56:02.168Z,68.63
2018-02-09T08:56:46.875Z,68.44
2018-02-09T08:57:31.582Z,68.63
2018-02-09T08:58:16.356Z,68.44
2018-02-09T08:59:01.062Z,67.96
2018-02-09T08:59:45.765Z,67.87
2018-02-09T09:00:30.492Z,67.77
2018-02-09T09:01:15.201Z,67.49
2018-02-09T09:01:59.928Z,67.49
2018-02-09T09:02:44.658Z,67.40
2018-02-09T09:03:29.428Z,67.33
2018-02-09T09:04:14.136Z,67.62
2018-02-09T09:04:58.863Z,67.24
2018-02-09T09:05:43.585Z,67.24
2018-02-09T09:06:28.386Z,67.33
2018-02-09T09:07:13.049Z,66.96
2018-02-09T09:07:57.787Z,66.96
2018-02-09T09:08:42.489Z,66.77
2018-02-09T09:09:27.213Z,66.20
2018-02-09T09:10:11.942Z,66.48
2018-02-09T09:10:56.650Z,66.67
2018-02-09T09:11:41.400Z,66.58
2018-02-09T09:12:26.178Z,66.29
2018-02-09T09:13:10.882Z,66.67
2018-02-09T09:13:55.592Z,66.20
2018-02-09T09:14:40.342Z,66.29
2018-02-09T09:15:25.038Z,66.20
2018-02-09T09:16:09.760Z,66.39
2018-02-09T09:16:54.482Z,65.63
2018-02-09T09:17:39.390Z,66.01
2018-02-09T09:18:24.107Z,65.63
2018-02-09T09:19:08.785Z,65.82
2018-02-09T09:19:53.491Z,65.47
2018-02-09T09:20:38.197Z,65.37
2018-02-09T09:21:22.902Z,65.28
2018-02-09T09:22:07.610Z,65.06
2018-02-09T09:22:52.315Z,65.25
2018-02-09T09:23:37.037Z,65.34
2018-02-09T09:24:21.753Z,65.34
2018-02-09T09:25:06.675Z,65.34
2018-02-09T09:25:51.402Z,65.53
2018-02-09T09:26:36.178Z,65.82
2018-02-09T09:27:20.884Z,65.63
2018-02-09T09:28:05.590Z,65.72
2018-02-09T09:28:50.319Z,66.01
2018-02-09T09:29:35.024Z,66.01
2018-02-09T09:30:19.728Z,65.72
2018-02-09T09:31:04.456Z,65.85
2018-02-09T09:31:49.160Z,65.66
2018-02-09T09:32:33.869Z,65.56
2018-02-09T09:33:18.575Z,65.47
2018-02-09T09:34:03.331Z,65.09
2018-02-09T09:34:48.047Z,64.71
2018-02-09T09:35:32.748Z,64.71